Time;durP1;ratioP1;P1;durP2;ratioP2;P2;SDS_P1;SDS_P2;PMS_P1;PMS_P2;Temp;Humidity;BMP_temperature;BMP_pressure;BME280_temperature;BME280_humidity;BME280_pressure;Samples;Min_cycle;Max_cycle;Signal;HPM_P1;HPM_P2
2024/01/07 11:43:16;;;;;;;3.80;2.50;;;;;;;-6.54;76.37;98621.27;103136;1286;600222;-26
2024/01/07 11:45:45;;;;;;;4.50;3.10;;;;;;;-6.03;74.72;98623.64;105060;1269;61206;-26
2024/01/07 11:48:13;;;;;;;7.30;3.60;;;;;;;-6.41;74.39;98617.81;104852;1272;61189;-26
2024/01/07 11:50:41;;;;;;;8.60;4.90;;;;;;;-6.65;76.24;98616.74;104904;1267;71658;-26
2024/01/07 12:00:49;;;;;;;61.10;24.00;;;;;;;-5.78;73.60;98614.83;102748;1290;599397;-26
2024/01/07 12:03:17;;;;;;;18.70;10.40;;;;;;;-6.08;73.85;98613.77;105037;1269;61142;-26
2024/01/07 12:05:47;;;;;;;7.40;4.50;;;;;;;-6.23;74.12;98614.77;105069;1266;61248;-26
2024/01/07 12:08:15;;;;;;;6.70;4.70;;;;;;;-6.55;75.48;98613.01;105064;1269;71042;-26
2024/01/07 12:10:43;;;;;;;4.70;3.10;;;;;;;-6.67;75.77;98612.73;105046;1264;74865;-26
2024/01/07 12:13:11;;;;;;;6.20;3.80;;;;;;;-6.58;75.21;98614.43;104875;1264;70419;-26
2024/01/07 12:15:39;;;;;;;4.80;2.20;;;;;;;-6.93;76.18;98614.52;105135;1262;146674;-26
2024/01/07 12:18:07;;;;;;;7.70;4.50;;;;;;;-6.19;74.79;98617.38;105201;1264;61061;-26
2024/01/07 12:20:35;;;;;;;8.20;4.30;;;;;;;-6.16;74.48;98614.92;105194;1262;74514;-26
2024/01/07 12:23:09;;;;;;;10.10;4.20;;;;;;;-6.11;74.16;98613.15;105197;1269;74965;-26
2024/01/07 12:25:37;;;;;;;8.30;4.40;;;;;;;-5.86;73.02;98609.73;105133;1269;72611;-26
2024/01/07 12:28:07;;;;;;;7.90;4.60;;;;;;;-6.22;73.95;98609.85;105196;1268;61157;-27
2024/01/07 12:30:36;;;;;;;8.30;3.50;;;;;;;-6.26;73.77;98612.64;105081;1262;61058;-26
2024/01/07 12:33:05;;;;;;;10.00;4.50;;;;;;;-7.23;76.16;98604.90;105185;1264;73021;-26
2024/01/07 12:35:34;;;;;;;5.60;3.20;;;;;;;-7.02;76.30;98606.42;105907;1260;72936;-26
2024/01/07 12:45:37;;;;;;;10.20;4.70;;;;;;;-6.36;73.57;98608.23;102710;1294;599502;-26
2024/01/07 12:48:05;;;;;;;6.60;4.30;;;;;;;-6.38;73.34;98613.70;104821;1266;61173;-26
2024/01/07 12:50:33;;;;;;;8.00;3.80;;;;;;;-6.72;74.38;98611.45;104941;1267;61160;-26
2024/01/07 12:53:01;;;;;;;8.20;4.70;;;;;;;-7.11;75.09;98612.98;104836;1266;73415;-26
2024/01/07 12:55:29;;;;;;;6.60;3.20;;;;;;;-6.85;74.79;98621.30;104790;1272;73193;-26
2024/01/07 12:57:58;;;;;;;9.50;6.30;;;;;;;-6.70;73.99;98624.09;104802;1273;72666;-26
2024/01/07 13:00:28;;;;;;;11.80;5.80;;;;;;;-7.35;75.68;98620.29;105034;1264;208565;-26
2024/01/07 13:02:56;;;;;;;3.60;2.70;;;;;;;-6.96;74.35;98626.41;105194;1269;61081;-26
2024/01/07 13:05:28;;;;;;;6.70;3.50;;;;;;;-6.74;72.92;98621.98;105146;1269;72553;-26
2024/01/07 13:07:56;;;;;;;6.30;4.00;;;;;;;-6.91;72.46;98627.84;104847;1270;73659;-26
2024/01/07 13:10:23;;;;;;;10.60;5.10;;;;;;;-6.37;70.65;98631.75;104902;1270;71420;-26
2024/01/07 13:12:51;;;;;;;9.00;4.20;;;;;;;-6.57;70.42;98630.95;105059;1266;61126;-26
2024/01/07 13:15:27;;;;;;;7.90;3.40;;;;;;;-6.61;70.45;98630.33;105172;1267;61115;-26
2024/01/07 13:17:55;;;;;;;8.70;4.80;;;;;;;-6.72;69.74;98626.67;105218;1261;73031;-26
2024/01/07 13:20:22;;;;;;;6.40;4.00;;;;;;;-7.01;70.52;98629.02;105197;1267;72312;-26
2024/01/07 13:22:50;;;;;;;11.10;6.20;;;;;;;-6.98;70.12;98625.42;105206;1268;72755;-26
2024/01/07 13:25:18;;;;;;;11.00;4.20;;;;;;;-7.29;70.58;98628.30;105209;1260;61155;-26
2024/01/07 13:27:46;;;;;;;7.20;4.00;;;;;;;-7.02;69.95;98626.17;105252;1261;61217;-26
2024/01/07 13:30:14;;;;;;;10.20;3.70;;;;;;;-6.70;68.70;98638.44;105178;1261;73023;-26
2024/01/07 13:32:42;;;;;;;6.70;3.50;;;;;;;-5.94;66.22;98638.99;105215;1265;74359;-27
2024/01/07 13:35:10;;;;;;;8.20;5.20;;;;;;;-6.23;66.39;98645.33;105268;1264;72691;-26
2024/01/07 13:37:41;;;;;;;10.80;4.00;;;;;;;-5.87;65.58;98648.33;105270;1261;61173;-26
2024/01/07 13:40:11;;;;;;;8.30;3.70;;;;;;;-6.69;66.64;98649.18;105108;1267;61212;-26
2024/01/07 13:42:38;;;;;;;7.50;4.70;;;;;;;-7.01;68.05;98655.52;104322;1269;1003684;-26
2024/01/07 13:45:06;;;;;;;9.70;4.40;;;;;;;-7.19;68.70;98658.52;105202;1261;73140;-26
2024/01/07 13:54:14;;;;;;;11.10;5.80;;;;;;;-7.36;69.62;98659.42;102704;1292;600044;-26
2024/01/07 13:56:42;;;;;;;14.70;6.00;;;;;;;-7.81;71.12;98656.17;104883;1268;61193;-26
2024/01/07 13:59:10;;;;;;;8.40;4.90;;;;;;;-7.50;70.32;98661.65;104857;1270;61047;-26
2024/01/07 14:01:39;;;;;;;6.50;3.50;;;;;;;-6.67;68.32;98662.88;104801;1265;72547;-26
2024/01/07 14:04:07;;;;;;;7.20;3.80;;;;;;;-7.01;68.05;98662.27;104643;1271;73076;-26
2024/01/07 14:06:35;;;;;;;7.10;3.80;;;;;;;-6.92;68.20;98658.40;104773;1266;73729;-26
2024/01/07 14:09:03;;;;;;;8.70;4.70;;;;;;;-7.03;68.90;98661.11;104914;1268;193349;-26
2024/01/07 14:11:30;;;;;;;11.00;6.00;;;;;;;-7.36;69.47;98665.33;105111;1264;61111;-26
2024/01/07 14:13:58;;;;;;;8.50;4.80;;;;;;;-7.76;71.02;98665.02;105092;1263;70985;-26
2024/01/07 14:16:26;;;;;;;9.10;3.90;;;;;;;-8.01;72.65;98667.38;105073;1268;74382;-26
2024/01/07 14:18:54;;;;;;;8.70;4.70;;;;;;;-7.82;72.63;98669.33;104955;1269;71442;-26
2024/01/07 14:21:22;;;;;;;5.80;2.70;;;;;;;-8.14;73.30;98672.75;105145;1268;61072;-26
2024/01/07 14:23:49;;;;;;;5.70;3.30;;;;;;;-7.53;72.48;98682.45;104948;1268;61093;-26
2024/01/07 14:26:19;;;;;;;7.70;4.70;;;;;;;-6.92;70.97;98684.06;104996;1268;71818;-26
2024/01/07 14:28:47;;;;;;;16.00;8.50;;;;;;;-7.22;70.22;98683.67;105183;1269;74432;-26
2024/01/07 14:31:26;;;;;;;11.40;6.50;;;;;;;-7.40;71.69;98687.14;104760;1266;71650;-26
2024/01/07 14:33:55;;;;;;;8.10;4.40;;;;;;;-8.16;72.84;98679.84;104735;1266;61155;-26
2024/01/07 14:36:23;;;;;;;6.20;3.20;;;;;;;-7.70;72.91;98686.89;104975;1268;61223;-26
2024/01/07 14:46:28;;;;;;;4.90;2.90;;;;;;;-8.27;74.87;98691.26;102655;1290;600302;-26
2024/01/07 14:48:56;;;;;;;6.30;3.90;;;;;;;-7.54;71.98;98697.98;104850;1270;61136;-26
2024/01/07 14:51:24;;;;;;;9.10;4.50;;;;;;;-7.69;70.55;98693.40;104854;1270;61191;-26
2024/01/07 14:53:52;;;;;;;4.90;2.80;;;;;;;-8.24;72.06;98685.83;104844;1270;71292;-27
2024/01/07 14:56:20;;;;;;;14.70;6.70;;;;;;;-8.22;72.25;98690.02;104839;1272;74429;-26
2024/01/07 14:58:47;;;;;;;12.00;5.80;;;;;;;-8.09;72.64;98691.05;104860;1272;71382;-26
2024/01/07 15:01:15;;;;;;;7.00;4.00;;;;;;;-8.77;74.63;98692.77;104583;1266;253041;-26
2024/01/07 15:03:43;;;;;;;8.00;3.70;;;;;;;-8.73;75.42;98694.93;104843;1268;61252;-26
2024/01/07 15:06:14;;;;;;;6.70;3.70;;;;;;;-8.08;73.23;98692.74;104791;1263;73771;-26
2024/01/07 15:08:45;;;;;;;5.10;3.50;;;;;;;-8.25;72.74;98691.58;104951;1269;74476;-26
2024/01/07 15:11:12;;;;;;;9.10;4.10;;;;;;;-7.89;72.00;98700.94;104752;1264;71647;-26
2024/01/07 15:13:40;;;;;;;7.40;4.10;;;;;;;-8.29;71.85;98693.63;104842;1269;61183;-26
2024/01/07 15:16:08;;;;;;;6.50;3.20;;;;;;;-8.42;71.74;98696.48;105069;1268;61069;-26
2024/01/07 15:18:36;;;;;;;14.00;5.80;;;;;;;-8.25;71.18;98696.97;104810;1262;73502;-26
2024/01/07 15:21:05;;;;;;;7.30;4.10;;;;;;;-8.34;71.38;98698.58;105055;1266;74323;-26
2024/01/07 15:23:33;;;;;;;7.80;3.50;;;;;;;-8.53;71.96;98697.60;104775;1270;71526;-26
2024/01/07 15:26:01;;;;;;;7.90;4.60;;;;;;;-8.60;70.96;98692.29;104919;1266;61078;-26
2024/01/07 15:28:28;;;;;;;10.90;5.30;;;;;;;-8.38;70.13;98695.41;104773;1266;61125;-26
2024/01/07 15:30:56;;;;;;;8.90;5.40;;;;;;;-8.78;70.48;98689.09;104836;1266;73317;-26
2024/01/07 15:33:24;;;;;;;7.90;4.20;;;;;;;-8.98;71.53;98691.11;104765;1267;76269;-26
2024/01/07 15:35:52;;;;;;;6.30;4.10;;;;;;;-8.89;71.56;98695.73;104766;1268;73971;-26
2024/01/07 15:38:20;;;;;;;6.70;4.10;;;;;;;-8.51;70.06;98697.25;104778;1270;61176;-26
2024/01/07 15:40:48;;;;;;;9.00;5.60;;;;;;;-8.51;69.80;98700.77;104800;1266;61055;-26
2024/01/07 15:43:18;;;;;;;6.90;4.00;;;;;;;-9.09;71.64;98702.63;104864;1266;73673;-26
2024/01/07 15:53:31;;;;;;;8.10;3.80;;;;;;;-8.41;68.18;98708.77;102726;1290;599019;-26
2024/01/07 16:03:40;;;;;;;6.80;3.60;;;;;;;-9.09;69.84;98714.06;102765;1289;599026;-26
2024/01/07 16:06:08;;;;;;;7.70;4.30;;;;;;;-9.03;68.72;98709.13;104881;1270;61670;-26
2024/01/07 16:08:36;;;;;;;2.80;1.80;;;;;;;-8.58;67.11;98709.92;104878;1266;61189;-26
2024/01/07 16:11:04;;;;;;;12.00;5.40;;;;;;;-7.26;63.69;98711.40;104868;1269;71154;-27
2024/01/07 16:13:32;;;;;;;9.60;4.60;;;;;;;-8.03;64.29;98705.96;104907;1270;74245;-26
2024/01/07 16:16:00;;;;;;;8.90;5.20;;;;;;;-9.14;67.87;98709.06;105048;1269;75045;-26
2024/01/07 16:18:28;;;;;;;3.10;2.40;;;;;;;-8.80;66.85;98712.48;105437;1260;196211;-26
2024/01/07 16:20:56;;;;;;;6.60;3.40;;;;;;;-8.86;66.38;98713.88;105359;1257;61098;-27
2024/01/07 16:23:26;;;;;;;6.10;4.10;;;;;;;-9.08;67.22;98722.46;105563;1257;71446;-26
2024/01/07 16:33:33;;;;;;;7.20;4.70;;;;;;;-9.12;67.55;98717.10;102742;1291;599396;-26
2024/01/07 16:36:04;;;;;;;8.20;4.60;;;;;;;-9.18;67.67;98722.20;104858;1268;61082;-26
2024/01/07 16:38:34;;;;;;;6.30;4.10;;;;;;;-9.21;67.49;98718.35;104659;1276;61130;-26
2024/01/07 16:41:04;;;;;;;7.70;4.20;;;;;;;-9.54;67.11;98712.16;104837;1269;72017;-26
2024/01/07 16:43:33;;;;;;;6.90;3.90;;;;;;;-9.16;66.38;98712.61;104854;1270;74806;-26
2024/01/07 16:54:02;;;;;;;8.70;5.60;;;;;;;-8.63;63.34;98716.20;102576;1290;615379;-26
2024/01/07 16:56:29;;;;;;;13.60;4.80;;;;;;;-8.65;63.41;98719.61;105209;1264;61775;-26
2024/01/07 16:58:56;;;;;;;6.50;4.10;;;;;;;-9.25;64.36;98714.35;105704;1260;61687;-27
2024/01/07 17:01:25;;;;;;;6.60;3.90;;;;;;;-9.42;64.09;98719.98;105617;1258;73577;-26
2024/01/07 17:03:56;;;;;;;9.30;5.30;;;;;;;-9.47;64.32;98720.36;105621;1257;75879;-26
2024/01/07 17:06:23;;;;;;;5.80;3.90;;;;;;;-8.83;63.09;98717.05;105492;1257;196140;-27
2024/01/07 17:08:51;;;;;;;8.30;4.90;;;;;;;-8.49;61.38;98717.59;105706;1255;61044;-26
2024/01/07 17:11:18;;;;;;;11.30;4.70;;;;;;;-8.67;61.59;98717.10;105701;1260;61672;-26
2024/01/07 17:13:46;;;;;;;8.80;4.80;;;;;;;-9.20;63.40;98713.96;105726;1260;74411;-26
2024/01/07 17:16:13;;;;;;;10.30;4.80;;;;;;;-9.19;63.01;98716.65;105756;1255;75868;-26
2024/01/07 17:18:41;;;;;;;9.70;3.40;;;;;;;-9.24;63.48;98722.75;105633;1260;74127;-26
2024/01/07 17:21:09;;;;;;;9.10;4.40;;;;;;;-9.49;63.78;98716.83;105699;1258;61151;-26
2024/01/07 17:23:37;;;;;;;8.00;4.10;;;;;;;-9.07;63.95;98717.39;105635;1260;61546;-26
2024/01/07 17:26:04;;;;;;;7.50;4.30;;;;;;;-9.13;62.43;98715.45;105636;1260;72744;-27
2024/01/07 17:28:31;;;;;;;9.10;4.70;;;;;;;-9.22;63.27;98711.80;105569;1258;73368;-26
2024/01/07 17:30:58;;;;;;;7.90;4.90;;;;;;;-9.31;63.42;98717.24;105611;1260;72180;-26
2024/01/07 17:33:25;;;;;;;8.40;4.70;;;;;;;-8.87;62.34;98722.30;105606;1257;61058;-26
2024/01/07 17:35:52;;;;;;;6.30;4.40;;;;;;;-9.48;62.87;98719.19;105421;1260;61175;-26
2024/01/07 17:38:20;;;;;;;7.20;3.80;;;;;;;-9.69;64.08;98723.49;105593;1257;71928;-26
2024/01/07 17:40:48;;;;;;;5.20;2.90;;;;;;;-9.73;64.32;98722.02;105517;1260;73976;-27
2024/01/07 17:43:15;;;;;;;7.80;4.20;;;;;;;-9.37;63.74;98720.30;105399;1258;72876;-26
2024/01/07 17:45:43;;;;;;;7.60;2.90;;;;;;;-9.35;63.39;98722.64;105451;1257;61212;-26
2024/01/07 17:48:10;;;;;;;10.80;4.80;;;;;;;-8.71;62.41;98732.26;105588;1258;61664;-27
2024/01/07 17:50:39;;;;;;;8.30;4.60;;;;;;;-8.67;61.64;98730.21;105643;1260;72330;-27
2024/01/07 17:53:09;;;;;;;6.30;3.80;;;;;;;-9.07;62.21;98731.54;105551;1260;71954;-27
2024/01/07 17:55:36;;;;;;;8.80;4.10;;;;;;;-9.03;62.51;98738.92;105559;1257;72926;-27
2024/01/07 17:58:03;;;;;;;8.80;4.60;;;;;;;-9.31;63.39;98741.95;105550;1257;60984;-26
2024/01/07 18:00:32;;;;;;;7.80;4.40;;;;;;;-9.16;63.52;98740.86;105217;1261;61192;-26
2024/01/07 18:03:05;;;;;;;6.10;4.10;;;;;;;-9.06;63.26;98731.03;105566;1260;73461;-27
2024/01/07 18:05:36;;;;;;;8.00;4.90;;;;;;;-9.31;63.29;98732.89;105586;1258;74364;-27
2024/01/07 18:08:04;;;;;;;11.10;5.00;;;;;;;-8.89;63.05;98728.70;105477;1258;74129;-27
2024/01/07 18:10:31;;;;;;;9.40;4.70;;;;;;;-8.83;62.32;98731.39;105573;1255;61266;-27
2024/01/07 18:12:59;;;;;;;11.10;5.00;;;;;;;-9.23;62.82;98725.42;105679;1260;61652;-26
2024/01/07 18:15:26;;;;;;;8.00;4.70;;;;;;;-9.70;64.08;98731.07;105587;1258;72468;-27
2024/01/07 18:17:53;;;;;;;10.60;4.40;;;;;;;-9.61;64.97;98723.80;105400;1259;74909;-26
2024/01/07 18:20:23;;;;;;;7.20;3.40;;;;;;;-9.31;64.26;98730.52;105541;1257;72552;-27
2024/01/07 18:22:50;;;;;;;9.70;3.60;;;;;;;-8.77;62.27;98733.30;105323;1261;61663;-27
2024/01/07 18:25:17;;;;;;;6.00;3.50;;;;;;;-8.81;61.99;98746.80;105287;1260;61111;-27
2024/01/07 18:27:45;;;;;;;5.90;3.20;;;;;;;-8.76;61.87;98754.37;105445;1260;72407;-27
2024/01/07 18:30:12;;;;;;;5.10;3.30;;;;;;;-8.71;61.37;98755.34;105411;1261;74635;-26
2024/01/07 18:32:40;;;;;;;8.70;4.10;;;;;;;-8.88;61.78;98754.80;105531;1258;72743;-27
2024/01/07 18:35:09;;;;;;;6.40;4.20;;;;;;;-9.14;61.90;98747.75;105446;1257;61060;-26
2024/01/07 18:37:37;;;;;;;4.50;2.80;;;;;;;-9.06;61.43;98757.78;105711;1257;61157;-26
2024/01/07 18:40:09;;;;;;;6.00;2.60;;;;;;;-8.13;59.35;98753.10;105733;1253;71958;-27
2024/01/07 18:42:36;;;;;;;8.20;5.00;;;;;;;-8.19;58.74;98746.59;105740;1259;74264;-27
2024/01/07 18:45:03;;;;;;;8.70;4.00;;;;;;;-9.23;61.43;98747.46;105887;1256;72483;-27
2024/01/07 18:47:32;;;;;;;10.50;4.90;;;;;;;-9.14;62.20;98756.48;105987;1251;61173;-27
2024/01/07 18:49:59;;;;;;;9.80;4.90;;;;;;;-9.35;62.47;98754.42;105821;1257;61668;-27
2024/01/07 18:52:26;;;;;;;11.00;5.90;;;;;;;-9.69;63.62;98749.55;105692;1251;72969;-27
2024/01/07 18:54:53;;;;;;;9.80;4.90;;;;;;;-9.92;64.18;98743.59;105801;1257;75493;-27
2024/01/07 18:57:20;;;;;;;8.40;4.80;;;;;;;-9.44;63.64;98744.89;105925;1255;72564;-26
2024/01/07 18:59:47;;;;;;;8.30;4.10;;;;;;;-8.98;62.07;98748.81;105720;1256;61049;-27
2024/01/07 19:02:15;;;;;;;9.30;3.70;;;;;;;-8.73;61.32;98748.61;105939;1256;61070;-27
2024/01/07 19:04:42;;;;;;;9.70;4.20;;;;;;;-9.35;61.79;98738.13;105920;1256;72466;-27
2024/01/07 19:07:09;;;;;;;11.30;6.20;;;;;;;-9.46;62.70;98744.06;105975;1264;75845;-27
2024/01/07 19:09:37;;;;;;;13.00;5.30;;;;;;;-9.45;63.64;98747.58;105973;1256;72467;-27
2024/01/07 19:12:05;;;;;;;6.20;3.80;;;;;;;-9.81;63.09;98741.70;105615;1256;61760;-27
2024/01/07 19:14:32;;;;;;;9.10;4.60;;;;;;;-9.76;62.92;98758.65;105720;1260;61901;-27
2024/01/07 19:17:04;;;;;;;12.00;5.10;;;;;;;-9.16;61.96;98766.73;105826;1256;73160;-27
2024/01/07 19:19:32;;;;;;;8.00;3.10;;;;;;;-9.05;61.08;98767.52;105880;1257;73862;-27
2024/01/07 19:21:59;;;;;;;10.90;4.60;;;;;;;-8.38;59.57;98765.98;105802;1257;72392;-27
2024/01/07 19:24:26;;;;;;;9.70;4.40;;;;;;;-8.73;60.08;98771.02;105790;1256;61058;-27
2024/01/07 19:26:53;;;;;;;10.60;5.40;;;;;;;-8.95;60.88;98770.50;105753;1256;61121;-27
2024/01/07 19:29:20;;;;;;;9.90;4.80;;;;;;;-9.38;61.23;98774.11;105628;1257;72146;-27
2024/01/07 19:31:48;;;;;;;8.70;5.10;;;;;;;-9.65;62.34;98767.68;105957;1260;74096;-27
2024/01/07 19:34:15;;;;;;;5.70;3.00;;;;;;;-9.68;62.95;98770.05;105717;1257;72574;-27
2024/01/07 19:36:43;;;;;;;9.80;4.70;;;;;;;-9.19;62.05;98781.24;105938;1255;61001;-27
2024/01/07 19:39:12;;;;;;;9.50;4.90;;;;;;;-8.62;60.19;98778.65;105843;1256;61742;-27
2024/01/07 19:41:40;;;;;;;10.20;4.00;;;;;;;-9.25;61.60;98776.73;105847;1257;72981;-27
2024/01/07 19:44:07;;;;;;;7.00;4.50;;;;;;;-9.01;61.43;98782.98;105927;1254;74419;-27
2024/01/07 19:46:34;;;;;;;11.60;6.10;;;;;;;-8.77;60.70;98784.00;105684;1251;72122;-27
2024/01/07 19:49:02;;;;;;;10.80;5.30;;;;;;;-9.68;61.95;98779.80;105115;1254;1003779;-27
2024/01/07 19:51:30;;;;;;;7.50;4.30;;;;;;;-9.66;62.69;98777.42;105711;1257;61192;-27
2024/01/07 19:53:57;;;;;;;5.10;3.30;;;;;;;-9.53;62.85;98781.75;105992;1251;73092;-28
2024/01/07 19:56:24;;;;;;;10.00;5.00;;;;;;;-9.28;61.69;98788.17;105961;1251;74667;-27
2024/01/07 19:58:52;;;;;;;11.30;5.30;;;;;;;-9.22;61.66;98792.52;105939;1257;72491;-27
2024/01/07 20:01:19;;;;;;;10.00;4.10;;;;;;;-9.30;61.67;98783.32;105811;1251;61039;-27
2024/01/07 20:03:46;;;;;;;10.10;5.00;;;;;;;-9.41;61.55;98791.60;105853;1260;61103;-27
2024/01/07 20:06:14;;;;;;;7.90;3.30;;;;;;;-9.74;62.57;98794.77;105992;1257;73239;-27
2024/01/07 20:08:43;;;;;;;11.40;5.20;;;;;;;-9.64;63.16;98791.55;105969;1251;73929;-27
2024/01/07 20:11:17;;;;;;;10.50;3.50;;;;;;;-9.74;63.48;98788.05;105784;1257;73989;-27
2024/01/07 20:13:47;;;;;;;8.60;4.70;;;;;;;-9.34;62.20;98788.89;105858;1251;61067;-27
2024/01/07 20:16:17;;;;;;;10.40;4.60;;;;;;;-8.89;61.17;98795.03;105764;1256;61099;-27
2024/01/07 20:18:45;;;;;;;9.90;5.30;;;;;;;-8.89;61.20;98791.49;105632;1251;71552;-27
2024/01/07 20:21:28;;;;;;;9.90;5.10;;;;;;;-9.29;61.80;98793.41;105755;1257;75844;-27
2024/01/07 20:23:59;;;;;;;9.80;5.80;;;;;;;-9.29;62.20;98802.14;104953;1257;1002949;-27
2024/01/07 20:26:27;;;;;;;14.30;5.60;;;;;;;-9.38;62.61;98800.85;105898;1252;61706;-27
2024/01/07 20:28:56;;;;;;;8.50;4.90;;;;;;;-9.63;63.19;98794.23;105779;1260;61138;-27
2024/01/07 20:31:26;;;;;;;6.40;3.90;;;;;;;-9.28;63.08;98793.23;105749;1256;72712;-28
2024/01/07 20:33:53;;;;;;;9.10;4.50;;;;;;;-8.64;60.56;98802.24;105746;1251;74355;-27
2024/01/07 20:36:20;;;;;;;10.90;4.50;;;;;;;-8.96;61.23;98800.45;105855;1255;74166;-28
2024/01/07 20:38:47;;;;;;;9.40;5.60;;;;;;;-8.81;60.73;98807.59;105683;1256;61047;-27
2024/01/07 20:41:16;;;;;;;10.20;4.20;;;;;;;-9.39;62.14;98808.06;105902;1251;61933;-27
2024/01/07 20:43:43;;;;;;;10.60;5.30;;;;;;;-8.91;61.39;98826.83;105952;1257;73117;-27
2024/01/07 20:46:11;;;;;;;10.90;5.60;;;;;;;-9.40;62.32;98817.16;105930;1255;74190;-27
2024/01/07 20:48:38;;;;;;;10.50;5.60;;;;;;;-9.60;63.43;98819.07;105940;1257;72329;-27
2024/01/07 20:51:06;;;;;;;8.10;4.70;;;;;;;-9.58;62.48;98819.24;105808;1257;61144;-27
2024/01/07 20:53:33;;;;;;;11.30;6.00;;;;;;;-8.75;61.20;98827.05;105928;1256;61169;-27
2024/01/07 20:56:00;;;;;;;7.50;4.50;;;;;;;-8.78;60.91;98830.42;105782;1256;72789;-27
2024/01/07 20:58:29;;;;;;;14.80;6.00;;;;;;;-8.88;61.51;98832.19;105771;1251;74681;-28
2024/01/07 21:00:56;;;;;;;11.30;5.90;;;;;;;-9.41;62.00;98819.67;105863;1257;72520;-27
2024/01/07 21:03:25;;;;;;;8.10;4.20;;;;;;;-9.53;62.43;98825.61;105870;1251;61035;-27
2024/01/07 21:05:56;;;;;;;13.80;6.20;;;;;;;-9.38;62.43;98824.71;105900;1258;61192;-27
2024/01/07 21:08:24;;;;;;;15.20;5.70;;;;;;;-9.52;62.84;98822.08;105913;1257;73755;-27
2024/01/07 21:10:52;;;;;;;11.20;5.30;;;;;;;-8.53;60.73;98833.45;105658;1265;74306;-27
2024/01/07 21:13:19;;;;;;;11.00;6.10;;;;;;;-9.02;60.34;98831.20;105665;1256;72656;-28
2024/01/07 21:15:46;;;;;;;14.10;6.10;;;;;;;-9.21;61.67;98839.95;105791;1251;61169;-28
2024/01/07 21:18:14;;;;;;;12.80;6.70;;;;;;;-9.15;61.48;98841.59;105923;1257;61701;-27
2024/01/07 21:20:42;;;;;;;11.50;5.80;;;;;;;-9.58;62.60;98841.44;106008;1251;74006;-27
2024/01/07 21:23:09;;;;;;;9.60;5.80;;;;;;;-9.63;62.74;98846.83;105938;1256;74381;-27
2024/01/07 21:25:36;;;;;;;10.80;4.50;;;;;;;-9.64;62.87;98849.35;105909;1256;73252;-28
2024/01/07 21:28:06;;;;;;;9.10;5.70;;;;;;;-9.60;62.39;98852.53;105919;1251;61129;-27
2024/01/07 21:30:34;;;;;;;12.50;5.90;;;;;;;-8.95;60.74;98855.80;105776;1251;61132;-27
2024/01/07 21:33:00;;;;;;;10.80;5.20;;;;;;;-9.00;60.67;98850.10;105969;1251;73849;-27
2024/01/07 21:35:28;;;;;;;12.80;4.50;;;;;;;-9.25;61.43;98850.89;105932;1251;74381;-27
2024/01/07 21:37:55;;;;;;;19.60;7.90;;;;;;;-9.77;62.01;98843.84;106010;1257;73236;-27
2024/01/07 21:40:22;;;;;;;22.20;9.50;;;;;;;-9.61;61.99;98853.88;105975;1255;61070;-27
2024/01/07 21:42:50;;;;;;;16.60;8.20;;;;;;;-9.85;63.47;98858.81;105759;1257;61569;-27
2024/01/07 21:45:18;;;;;;;19.10;4.10;;;;;;;-9.58;62.72;98862.60;105975;1251;73817;-27
2024/01/07 21:47:45;;;;;;;8.90;4.60;;;;;;;-9.15;61.33;98862.95;105999;1256;74137;-27
2024/01/07 21:50:13;;;;;;;11.00;4.70;;;;;;;-8.99;60.39;98866.75;105933;1251;72454;-27
2024/01/07 21:52:40;;;;;;;17.30;7.20;;;;;;;-9.23;61.20;98868.38;105918;1257;61118;-28
2024/01/07 21:55:08;;;;;;;16.10;7.10;;;;;;;-9.55;61.51;98863.78;105692;1257;61125;-27
2024/01/07 21:57:35;;;;;;;12.60;6.70;;;;;;;-9.78;62.43;98861.82;105836;1257;73721;-27
2024/01/07 22:00:02;;;;;;;13.20;6.00;;;;;;;-9.77;62.47;98861.48;105765;1258;74377;-27
2024/01/07 22:02:36;;;;;;;12.80;4.40;;;;;;;-9.96;63.13;98860.52;105892;1257;72641;-27
2024/01/07 22:05:04;;;;;;;11.90;6.50;;;;;;;-9.36;61.90;98859.86;105871;1256;61051;-27
2024/01/07 22:07:31;;;;;;;12.00;5.70;;;;;;;-8.92;60.85;98865.84;105790;1257;61174;-28
2024/01/07 22:10:03;;;;;;;8.10;4.40;;;;;;;-9.49;61.68;98862.73;105980;1251;73804;-27
2024/01/07 22:12:31;;;;;;;8.90;5.20;;;;;;;-9.59;61.35;98867.99;105934;1256;74885;-28
2024/01/07 22:14:57;;;;;;;10.60;5.70;;;;;;;-9.73;62.26;98868.02;105951;1253;72620;-28
2024/01/07 22:17:25;;;;;;;10.00;4.80;;;;;;;-10.00;63.61;98873.79;105943;1255;61173;-28
2024/01/07 22:19:52;;;;;;;7.80;4.80;;;;;;;-9.85;63.32;98880.48;105926;1257;61189;-27
2024/01/07 22:22:19;;;;;;;6.60;3.70;;;;;;;-9.57;62.48;98873.54;105699;1251;74347;-28
2024/01/07 22:24:46;;;;;;;7.40;4.90;;;;;;;-9.29;61.49;98870.94;105767;1251;74113;-27
2024/01/07 22:27:13;;;;;;;7.40;4.20;;;;;;;-9.77;62.24;98860.13;105841;1251;72609;-27
2024/01/07 22:29:39;;;;;;;9.50;4.70;;;;;;;-9.30;61.56;98862.86;105896;1251;61118;-28
2024/01/07 22:32:06;;;;;;;6.80;4.00;;;;;;;-9.34;60.72;98863.67;105873;1256;61161;-27
2024/01/07 22:34:33;;;;;;;9.00;4.40;;;;;;;-9.67;62.05;98869.02;105886;1257;73595;-27
2024/01/07 22:37:00;;;;;;;9.60;5.80;;;;;;;-9.57;61.64;98871.34;105728;1257;74534;-27
2024/01/07 22:39:27;;;;;;;8.60;5.30;;;;;;;-9.29;61.45;98879.83;105787;1255;70288;-27
2024/01/07 22:41:54;;;;;;;9.50;6.10;;;;;;;-8.56;59.70;98884.66;105717;1254;61166;-27
2024/01/07 22:44:21;;;;;;;7.80;4.60;;;;;;;-8.85;58.85;98883.16;105865;1257;61164;-27
2024/01/07 22:46:49;;;;;;;15.50;5.10;;;;;;;-8.55;58.58;98887.34;105673;1257;73590;-28
2024/01/07 22:49:16;;;;;;;10.70;4.80;;;;;;;-9.13;60.13;98884.15;105884;1257;74167;-28
2024/01/07 22:51:44;;;;;;;8.10;3.80;;;;;;;-9.35;60.87;98884.06;105819;1254;72979;-27
2024/01/07 22:54:11;;;;;;;10.30;5.60;;;;;;;-9.73;61.71;98888.17;105931;1251;61058;-27
2024/01/07 22:56:44;;;;;;;5.20;3.60;;;;;;;-9.85;62.58;98885.17;105868;1256;61124;-27
2024/01/07 22:59:13;;;;;;;13.60;6.30;;;;;;;-9.31;61.15;98895.48;105960;1251;71576;-27
2024/01/07 23:01:40;;;;;;;7.60;4.90;;;;;;;-8.98;59.68;98898.52;105744;1260;74082;-27
2024/01/07 23:04:07;;;;;;;11.90;5.80;;;;;;;-9.58;60.58;98896.73;105848;1251;72605;-27
2024/01/07 23:06:38;;;;;;;11.90;5.20;;;;;;;-9.33;60.65;98898.15;105708;1251;61073;-27
2024/01/07 23:09:07;;;;;;;8.70;4.20;;;;;;;-9.35;60.19;98893.80;105748;1251;61166;-27
2024/01/07 23:11:34;;;;;;;11.20;5.20;;;;;;;-9.37;60.81;98889.11;105866;1254;73720;-27
2024/01/07 23:14:04;;;;;;;10.90;5.50;;;;;;;-9.68;61.49;98897.25;105206;1256;1002926;-27
2024/01/07 23:16:31;;;;;;;10.00;5.10;;;;;;;-9.90;61.14;98884.36;105939;1252;73248;-27
2024/01/07 23:18:58;;;;;;;5.80;3.70;;;;;;;-9.43;60.43;98885.42;105873;1251;61103;-27
2024/01/07 23:21:26;;;;;;;10.90;5.40;;;;;;;-8.66;58.70;98899.04;105687;1256;61153;-28
2024/01/07 23:23:52;;;;;;;5.10;3.10;;;;;;;-8.70;57.75;98901.58;105724;1251;73859;-27
2024/01/07 23:26:19;;;;;;;8.60;4.60;;;;;;;-8.81;58.76;98902.66;105772;1256;74152;-27
2024/01/07 23:28:46;;;;;;;7.30;3.80;;;;;;;-9.36;60.07;98901.56;105762;1254;73163;-28
2024/01/07 23:31:13;;;;;;;11.90;5.00;;;;;;;-9.61;60.04;98898.75;105744;1256;61162;-27
2024/01/07 23:33:40;;;;;;;4.70;2.90;;;;;;;-9.34;61.21;98895.48;105844;1266;61138;-27
2024/01/07 23:36:08;;;;;;;11.10;6.60;;;;;;;-9.13;60.24;98896.42;105837;1257;73806;-28
2024/01/07 23:38:36;;;;;;;11.30;5.40;;;;;;;-9.62;60.41;98895.72;105789;1256;74570;-27
2024/01/07 23:41:03;;;;;;;10.30;5.50;;;;;;;-9.43;60.33;98903.74;105969;1251;71601;-28
2024/01/07 23:43:30;;;;;;;11.60;5.60;;;;;;;-9.61;60.99;98908.33;105850;1251;61157;-27
2024/01/07 23:45:57;;;;;;;16.20;7.20;;;;;;;-10.04;60.64;98907.04;105939;1257;61140;-27
2024/01/07 23:48:25;;;;;;;11.90;6.40;;;;;;;-10.04;61.64;98908.39;105729;1257;73812;-27
2024/01/07 23:50:52;;;;;;;16.60;7.70;;;;;;;-9.97;61.75;98911.24;105848;1257;74196;-27
2024/01/07 23:53:19;;;;;;;19.60;8.90;;;;;;;-9.66;61.75;98914.58;105869;1251;72643;-27
2024/01/07 23:55:46;;;;;;;17.90;8.10;;;;;;;-9.92;62.28;98917.95;105838;1255;61064;-28
2024/01/07 23:58:13;;;;;;;20.80;9.50;;;;;;;-9.74;62.38;98924.32;105696;1258;61179;-27
